sensor_id;sensor_type;location;lat;lon;timestamp;pressure;altitude;pressure_sealevel;temperature;humidity
27729;BME280;15126;42.186;24.340;2023-05-19T00:02:17;99343.53;;;14.38;82.76
27729;BME280;15126;42.186;24.340;2023-05-19T00:04:45;99343.84;;;14.40;83.19
27729;BME280;15126;42.186;24.340;2023-05-19T00:07:17;99340.53;;;14.32;82.27
27729;BME280;15126;42.186;24.340;2023-05-19T00:09:45;99343.53;;;14.38;82.54
27729;BME280;15126;42.186;24.340;2023-05-19T00:12:13;99334.13;;;14.32;82.99
27729;BME280;15126;42.186;24.340;2023-05-19T00:14:42;99327.03;;;14.40;82.92
27729;BME280;15126;42.186;24.340;2023-05-19T00:17:09;99322.63;;;14.39;82.70
27729;BME280;15126;42.186;24.340;2023-05-19T00:19:36;99327.94;;;14.37;82.85
27729;BME280;15126;42.186;24.340;2023-05-19T00:22:03;99327.94;;;14.37;83.15
27729;BME280;15126;42.186;24.340;2023-05-19T00:24:30;99326.09;;;14.43;82.53
27729;BME280;15126;42.186;24.340;2023-05-19T00:26:57;99337.56;;;14.36;83.27
27729;BME280;15126;42.186;24.340;2023-05-19T00:29:24;99332.31;;;14.38;82.77
27729;BME280;15126;42.186;24.340;2023-05-19T00:31:52;99332.44;;;14.34;83.04
27729;BME280;15126;42.186;24.340;2023-05-19T00:34:19;99332.88;;;14.32;83.17
27729;BME280;15126;42.186;24.340;2023-05-19T00:36:46;99342.00;;;14.24;82.30
27729;BME280;15126;42.186;24.340;2023-05-19T00:39:12;99333.09;;;14.25;83.39
27729;BME280;15126;42.186;24.340;2023-05-19T00:41:39;99333.31;;;14.31;83.21
27729;BME280;15126;42.186;24.340;2023-05-19T00:44:06;99329.19;;;14.23;83.79
27729;BME280;15126;42.186;24.340;2023-05-19T00:46:33;99326.19;;;14.17;84.00
27729;BME280;15126;42.186;24.340;2023-05-19T00:49:01;99318.41;;;14.21;83.90
27729;BME280;15126;42.186;24.340;2023-05-19T00:51:28;99318.75;;;14.23;83.62
27729;BME280;15126;42.186;24.340;2023-05-19T00:53:55;99318.34;;;14.12;83.88
27729;BME280;15126;42.186;24.340;2023-05-19T00:56:24;99304.44;;;14.09;83.72
27729;BME280;15126;42.186;24.340;2023-05-19T00:58:51;99317.09;;;14.13;84.35
27729;BME280;15126;42.186;24.340;2023-05-19T01:01:18;99323.19;;;14.12;84.33
27729;BME280;15126;42.186;24.340;2023-05-19T01:03:46;99317.56;;;14.12;84.71
27729;BME280;15126;42.186;24.340;2023-05-19T01:06:15;99324.28;;;14.14;84.20
27729;BME280;15126;42.186;24.340;2023-05-19T01:08:43;99319.00;;;14.16;84.51
27729;BME280;15126;42.186;24.340;2023-05-19T01:11:10;99319.16;;;14.13;83.74
27729;BME280;15126;42.186;24.340;2023-05-19T01:13:37;99314.06;;;14.20;84.62
27729;BME280;15126;42.186;24.340;2023-05-19T01:16:07;99316.19;;;14.16;84.04
27729;BME280;15126;42.186;24.340;2023-05-19T01:18:43;99315.75;;;14.18;83.99
27729;BME280;15126;42.186;24.340;2023-05-19T01:21:28;99318.34;;;14.12;83.66
27729;BME280;15126;42.186;24.340;2023-05-19T01:24:12;99302.88;;;14.08;84.04
27729;BME280;15126;42.186;24.340;2023-05-19T01:27:09;99311.28;;;14.08;84.08
27729;BME280;15126;42.186;24.340;2023-05-19T01:29:48;99315.34;;;14.07;83.71
27729;BME280;15126;42.186;24.340;2023-05-19T01:32:23;99308.28;;;14.02;83.66
27729;BME280;15126;42.186;24.340;2023-05-19T01:34:51;99300.84;;;14.08;84.23
27729;BME280;15126;42.186;24.340;2023-05-19T01:37:20;99306.47;;;14.08;83.82
27729;BME280;15126;42.186;24.340;2023-05-19T01:39:47;99302.09;;;14.07;83.63
27729;BME280;15126;42.186;24.340;2023-05-19T01:42:15;99313.13;;;14.02;83.91
27729;BME280;15126;42.186;24.340;2023-05-19T01:44:43;99308.03;;;14.09;83.60
27729;BME280;15126;42.186;24.340;2023-05-19T01:47:09;99310.84;;;14.09;83.68
27729;BME280;15126;42.186;24.340;2023-05-19T01:49:38;99319.16;;;14.13;83.37
27729;BME280;15126;42.186;24.340;2023-05-19T01:52:05;99320.03;;;14.10;83.23
27729;BME280;15126;42.186;24.340;2023-05-19T01:54:32;99315.34;;;14.07;83.67
27729;BME280;15126;42.186;24.340;2023-05-19T01:57:04;99321.59;;;14.11;84.53
27729;BME280;15126;42.186;24.340;2023-05-19T01:59:41;99311.88;;;14.03;84.16
27729;BME280;15126;42.186;24.340;2023-05-19T02:02:21;99319.25;;;14.09;84.46
27729;BME280;15126;42.186;24.340;2023-05-19T02:04:58;99328.53;;;14.19;83.82
27729;BME280;15126;42.186;24.340;2023-05-19T02:07:30;99327.50;;;14.25;84.35
27729;BME280;15126;42.186;24.340;2023-05-19T02:10:09;99316.53;;;14.18;84.33
27729;BME280;15126;42.186;24.340;2023-05-19T02:12:40;99324.22;;;14.27;84.90
27729;BME280;15126;42.186;24.340;2023-05-19T02:15:10;99328.06;;;14.33;84.09
27729;BME280;15126;42.186;24.340;2023-05-19T02:17:39;99331.09;;;14.26;84.43
27729;BME280;15126;42.186;24.340;2023-05-19T02:20:09;99330.34;;;14.13;85.42
27729;BME280;15126;42.186;24.340;2023-05-19T02:22:36;99330.88;;;14.20;85.42
27729;BME280;15126;42.186;24.340;2023-05-19T02:25:04;99327.75;;;14.18;85.75
27729;BME280;15126;42.186;24.340;2023-05-19T02:27:31;99328.41;;;14.22;85.91
27729;BME280;15126;42.186;24.340;2023-05-19T02:29:58;99334.66;;;14.05;85.77
27729;BME280;15126;42.186;24.340;2023-05-19T02:32:24;99333.66;;;13.99;86.28
27729;BME280;15126;42.186;24.340;2023-05-19T02:34:51;99333.44;;;13.93;86.56
27729;BME280;15126;42.186;24.340;2023-05-19T02:37:22;99341.19;;;13.89;86.32
27729;BME280;15126;42.186;24.340;2023-05-19T02:39:49;99348.03;;;13.88;86.83
27729;BME280;15126;42.186;24.340;2023-05-19T02:42:16;99338.63;;;13.82;86.18
27729;BME280;15126;42.186;24.340;2023-05-19T02:44:43;99334.13;;;13.85;86.19
27729;BME280;15126;42.186;24.340;2023-05-19T02:47:10;99345.81;;;13.83;86.21
27729;BME280;15126;42.186;24.340;2023-05-19T02:49:37;99329.69;;;13.75;87.00
27729;BME280;15126;42.186;24.340;2023-05-19T02:52:04;99343.69;;;13.75;86.88
27729;BME280;15126;42.186;24.340;2023-05-19T02:54:33;99344.28;;;13.69;86.50
27729;BME280;15126;42.186;24.340;2023-05-19T02:57:00;99326.00;;;13.52;86.84
27729;BME280;15126;42.186;24.340;2023-05-19T02:59:27;99341.47;;;13.69;87.16
27729;BME280;15126;42.186;24.340;2023-05-19T03:01:55;99333.75;;;13.48;87.54
27729;BME280;15126;42.186;24.340;2023-05-19T03:04:22;99340.56;;;13.60;87.68
27729;BME280;15126;42.186;24.340;2023-05-19T03:06:48;99348.88;;;13.63;88.09
27729;BME280;15126;42.186;24.340;2023-05-19T03:09:15;99337.31;;;13.49;88.07
27729;BME280;15126;42.186;24.340;2023-05-19T03:11:44;99346.53;;;13.49;87.93
27729;BME280;15126;42.186;24.340;2023-05-19T03:14:11;99362.78;;;13.54;87.75
27729;BME280;15126;42.186;24.340;2023-05-19T03:16:38;99350.91;;;13.50;88.59
27729;BME280;15126;42.186;24.340;2023-05-19T03:19:05;99352.69;;;13.44;89.17
27729;BME280;15126;42.186;24.340;2023-05-19T03:21:32;99369.94;;;13.43;89.30
27729;BME280;15126;42.186;24.340;2023-05-19T03:23:59;99348.88;;;13.38;89.51
27729;BME280;15126;42.186;24.340;2023-05-19T03:26:26;99347.44;;;13.34;89.05
27729;BME280;15126;42.186;24.340;2023-05-19T03:28:55;99366.38;;;13.42;89.31
27729;BME280;15126;42.186;24.340;2023-05-19T03:31:21;99358.84;;;13.52;88.58
27729;BME280;15126;42.186;24.340;2023-05-19T03:33:48;99363.22;;;13.40;89.31
27729;BME280;15126;42.186;24.340;2023-05-19T03:36:15;99364.47;;;13.39;89.17
27729;BME280;15126;42.186;24.340;2023-05-19T03:38:42;99369.94;;;13.43;88.84
27729;BME280;15126;42.186;24.340;2023-05-19T03:41:08;99365.44;;;13.45;88.86
27729;BME280;15126;42.186;24.340;2023-05-19T03:43:35;99366.59;;;13.48;88.92
27729;BME280;15126;42.186;24.340;2023-05-19T03:46:04;99359.97;;;13.42;88.71
27729;BME280;15126;42.186;24.340;2023-05-19T03:48:30;99365.91;;;13.56;89.11
27729;BME280;15126;42.186;24.340;2023-05-19T03:50:57;99365.25;;;13.52;88.29
27729;BME280;15126;42.186;24.340;2023-05-19T03:53:24;99353.13;;;13.55;88.45
27729;BME280;15126;42.186;24.340;2023-05-19T03:55:51;99362.56;;;13.61;88.83
27729;BME280;15126;42.186;24.340;2023-05-19T03:58:19;99365.53;;;13.67;88.41
27729;BME280;15126;42.186;24.340;2023-05-19T04:00:46;99369.03;;;13.71;87.69
27729;BME280;15126;42.186;24.340;2023-05-19T04:03:15;99363.19;;;13.78;87.85
27729;BME280;15126;42.186;24.340;2023-05-19T04:05:41;99377.41;;;13.96;87.42
27729;BME280;15126;42.186;24.340;2023-05-19T04:08:08;99347.38;;;13.84;86.23
27729;BME280;15126;42.186;24.340;2023-05-19T04:10:35;99364.53;;;14.20;85.12
27729;BME280;15126;42.186;24.340;2023-05-19T04:13:02;99379.25;;;14.59;83.67
27729;BME280;15126;42.186;24.340;2023-05-19T04:15:29;99374.97;;;14.98;82.15
27729;BME280;15126;42.186;24.340;2023-05-19T04:17:56;99376.59;;;15.38;80.89
27729;BME280;15126;42.186;24.340;2023-05-19T04:20:24;99381.09;;;15.67;77.81
27729;BME280;15126;42.186;24.340;2023-05-19T04:22:51;99379.28;;;15.91;77.00
27729;BME280;15126;42.186;24.340;2023-05-19T04:25:18;99382.19;;;16.27;76.55
27729;BME280;15126;42.186;24.340;2023-05-19T04:27:45;99384.41;;;16.69;76.00
27729;BME280;15126;42.186;24.340;2023-05-19T04:30:13;99389.88;;;16.90;73.73
27729;BME280;15126;42.186;24.340;2023-05-19T04:32:46;99383.84;;;17.15;74.17
27729;BME280;15126;42.186;24.340;2023-05-19T04:35:13;99377.31;;;17.00;72.66
27729;BME280;15126;42.186;24.340;2023-05-19T04:37:43;99376.97;;;17.07;72.15
27729;BME280;15126;42.186;24.340;2023-05-19T04:40:11;99369.03;;;16.88;72.88
27729;BME280;15126;42.186;24.340;2023-05-19T04:42:37;99363.38;;;16.97;74.56
27729;BME280;15126;42.186;24.340;2023-05-19T04:45:08;99369.31;;;17.08;73.48
27729;BME280;15126;42.186;24.340;2023-05-19T04:47:36;99371.69;;;16.91;74.14
27729;BME280;15126;42.186;24.340;2023-05-19T04:50:03;99377.16;;;16.86;73.99
27729;BME280;15126;42.186;24.340;2023-05-19T04:52:31;99384.03;;;16.94;74.24
27729;BME280;15126;42.186;24.340;2023-05-19T04:54:59;99378.44;;;16.76;74.54
27729;BME280;15126;42.186;24.340;2023-05-19T04:57:26;99380.81;;;16.68;74.73
27729;BME280;15126;42.186;24.340;2023-05-19T04:59:53;99387.81;;;16.63;74.36
27729;BME280;15126;42.186;24.340;2023-05-19T05:02:24;99389.97;;;16.23;75.62
27729;BME280;15126;42.186;24.340;2023-05-19T05:04:51;99379.31;;;16.00;76.28
27729;BME280;15126;42.186;24.340;2023-05-19T05:07:19;99391.69;;;16.21;76.33
27729;BME280;15126;42.186;24.340;2023-05-19T05:09:45;99386.69;;;16.34;78.70
27729;BME280;15126;42.186;24.340;2023-05-19T05:12:16;99357.16;;;16.29;76.80
27729;BME280;15126;42.186;24.340;2023-05-19T05:14:43;99354.50;;;16.53;76.93
27729;BME280;15126;42.186;24.340;2023-05-19T05:17:11;99368.75;;;16.77;76.11
27729;BME280;15126;42.186;24.340;2023-05-19T05:19:38;99390.97;;;16.84;74.22
27729;BME280;15126;42.186;24.340;2023-05-19T05:22:05;99394.69;;;16.99;74.24
27729;BME280;15126;42.186;24.340;2023-05-19T05:24:33;99379.63;;;17.20;74.82
27729;BME280;15126;42.186;24.340;2023-05-19T05:27:00;99396.91;;;17.46;73.27
27729;BME280;15126;42.186;24.340;2023-05-19T05:29:28;99398.91;;;17.63;73.19
27729;BME280;15126;42.186;24.340;2023-05-19T05:31:55;99403.28;;;17.64;73.20
27729;BME280;15126;42.186;24.340;2023-05-19T05:34:22;99411.31;;;17.90;72.73
27729;BME280;15126;42.186;24.340;2023-05-19T05:36:51;99411.34;;;17.80;71.14
27729;BME280;15126;42.186;24.340;2023-05-19T05:39:18;99411.50;;;17.86;71.80
27729;BME280;15126;42.186;24.340;2023-05-19T05:41:45;99410.41;;;17.83;71.82
27729;BME280;15126;42.186;24.340;2023-05-19T05:44:12;99412.94;;;18.05;71.62
27729;BME280;15126;42.186;24.340;2023-05-19T05:46:41;99414.09;;;17.99;72.86
27729;BME280;15126;42.186;24.340;2023-05-19T05:49:08;99408.22;;;18.11;72.90
27729;BME280;15126;42.186;24.340;2023-05-19T05:51:37;99417.41;;;18.21;72.01
27729;BME280;15126;42.186;24.340;2023-05-19T05:54:05;99413.81;;;18.44;70.25
27729;BME280;15126;42.186;24.340;2023-05-19T05:56:33;99426.16;;;18.56;69.79
27729;BME280;15126;42.186;24.340;2023-05-19T05:59:01;99427.97;;;18.82;71.68
27729;BME280;15126;42.186;24.340;2023-05-19T06:01:28;99421.47;;;19.06;72.27
27729;BME280;15126;42.186;24.340;2023-05-19T06:03:57;99437.09;;;19.16;68.47
27729;BME280;15126;42.186;24.340;2023-05-19T06:06:24;99432.69;;;19.15;69.17
27729;BME280;15126;42.186;24.340;2023-05-19T06:08:51;99424.69;;;19.28;71.94
27729;BME280;15126;42.186;24.340;2023-05-19T06:11:17;99440.13;;;19.41;68.82
27729;BME280;15126;42.186;24.340;2023-05-19T06:13:44;99422.47;;;19.32;65.58
27729;BME280;15126;42.186;24.340;2023-05-19T06:16:11;99436.78;;;19.28;65.67
27729;BME280;15126;42.186;24.340;2023-05-19T06:18:38;99436.63;;;19.61;67.97
27729;BME280;15126;42.186;24.340;2023-05-19T06:21:06;99422.94;;;19.74;67.19
27729;BME280;15126;42.186;24.340;2023-05-19T06:23:35;99437.03;;;20.03;67.78
27729;BME280;15126;42.186;24.340;2023-05-19T06:26:02;99440.78;;;20.30;66.23
27729;BME280;15126;42.186;24.340;2023-05-19T06:28:29;99440.78;;;20.30;66.44
27729;BME280;15126;42.186;24.340;2023-05-19T06:30:56;99441.22;;;20.63;68.68
27729;BME280;15126;42.186;24.340;2023-05-19T06:33:23;99445.63;;;20.64;63.26
27729;BME280;15126;42.186;24.340;2023-05-19T06:35:50;99443.56;;;20.64;62.53
27729;BME280;15126;42.186;24.340;2023-05-19T06:38:18;99450.91;;;20.36;63.92
27729;BME280;15126;42.186;24.340;2023-05-19T06:40:45;99440.38;;;20.57;67.48
27729;BME280;15126;42.186;24.340;2023-05-19T06:43:11;99450.16;;;20.76;63.92
27729;BME280;15126;42.186;24.340;2023-05-19T06:45:38;99463.75;;;20.92;60.67
27729;BME280;15126;42.186;24.340;2023-05-19T06:48:05;99462.97;;;20.92;59.56
27729;BME280;15126;42.186;24.340;2023-05-19T06:50:32;99463.31;;;20.99;64.28
27729;BME280;15126;42.186;24.340;2023-05-19T06:52:58;99457.56;;;20.94;62.30
27729;BME280;15126;42.186;24.340;2023-05-19T06:55:27;99463.31;;;20.79;60.32
27729;BME280;15126;42.186;24.340;2023-05-19T06:57:54;99460.53;;;21.05;62.25
27729;BME280;15126;42.186;24.340;2023-05-19T07:00:21;99460.03;;;21.06;60.28
27729;BME280;15126;42.186;24.340;2023-05-19T07:02:48;99463.50;;;21.42;60.23
27729;BME280;15126;42.186;24.340;2023-05-19T07:05:15;99458.84;;;21.64;60.46
27729;BME280;15126;42.186;24.340;2023-05-19T07:07:41;99456.22;;;21.86;63.38
27729;BME280;15126;42.186;24.340;2023-05-19T07:10:09;99459.53;;;22.16;63.97
27729;BME280;15126;42.186;24.340;2023-05-19T07:12:37;99464.78;;;21.66;58.98
27729;BME280;15126;42.186;24.340;2023-05-19T07:15:05;99458.94;;;21.75;59.17
27729;BME280;15126;42.186;24.340;2023-05-19T07:17:32;99466.34;;;21.67;60.91
27729;BME280;15126;42.186;24.340;2023-05-19T07:19:58;99452.41;;;21.95;59.07
27729;BME280;15126;42.186;24.340;2023-05-19T07:22:26;99461.41;;;22.30;59.65
27729;BME280;15126;42.186;24.340;2023-05-19T07:24:52;99456.13;;;22.54;62.76
27729;BME280;15126;42.186;24.340;2023-05-19T07:27:21;99457.78;;;22.72;57.66
27729;BME280;15126;42.186;24.340;2023-05-19T07:29:49;99461.94;;;22.77;60.30
27729;BME280;15126;42.186;24.340;2023-05-19T07:32:16;99453.16;;;22.80;60.82
27729;BME280;15126;42.186;24.340;2023-05-19T07:34:43;99464.50;;;22.69;56.62
27729;BME280;15126;42.186;24.340;2023-05-19T07:37:09;99460.13;;;22.74;60.43
27729;BME280;15126;42.186;24.340;2023-05-19T07:39:36;99463.53;;;22.35;57.71
27729;BME280;15126;42.186;24.340;2023-05-19T07:42:03;99457.38;;;22.48;58.63
27729;BME280;15126;42.186;24.340;2023-05-19T07:44:30;99453.09;;;22.64;61.53
27729;BME280;15126;42.186;24.340;2023-05-19T07:46:59;99451.69;;;22.48;56.34
27729;BME280;15126;42.186;24.340;2023-05-19T07:49:26;99450.66;;;22.45;58.03
27729;BME280;15126;42.186;24.340;2023-05-19T07:51:53;99457.25;;;22.68;57.84
27729;BME280;15126;42.186;24.340;2023-05-19T07:54:20;99461.91;;;22.66;57.11
27729;BME280;15126;42.186;24.340;2023-05-19T07:56:47;99458.03;;;22.69;58.04
27729;BME280;15126;42.186;24.340;2023-05-19T07:59:15;99452.44;;;22.85;58.15
27729;BME280;15126;42.186;24.340;2023-05-19T08:01:41;99452.44;;;22.91;55.14
27729;BME280;15126;42.186;24.340;2023-05-19T08:04:10;99458.66;;;23.00;57.37
27729;BME280;15126;42.186;24.340;2023-05-19T08:06:37;99468.16;;;22.81;53.80
27729;BME280;15126;42.186;24.340;2023-05-19T08:09:04;99457.41;;;22.53;54.36
27729;BME280;15126;42.186;24.340;2023-05-19T08:11:31;99459.63;;;22.81;59.54
27729;BME280;15126;42.186;24.340;2023-05-19T08:13:58;99461.81;;;23.19;58.58
27729;BME280;15126;42.186;24.340;2023-05-19T08:16:24;99461.59;;;23.34;58.88
27729;BME280;15126;42.186;24.340;2023-05-19T08:18:51;99456.75;;;23.45;52.59
27729;BME280;15126;42.186;24.340;2023-05-19T08:21:20;99458.81;;;23.50;55.50
27729;BME280;15126;42.186;24.340;2023-05-19T08:23:47;99464.53;;;23.67;54.03
27729;BME280;15126;42.186;24.340;2023-05-19T08:26:14;99465.81;;;23.66;54.89
27729;BME280;15126;42.186;24.340;2023-05-19T08:28:41;99464.25;;;23.87;54.59
27729;BME280;15126;42.186;24.340;2023-05-19T08:31:08;99466.31;;;23.87;50.26
27729;BME280;15126;42.186;24.340;2023-05-19T08:33:35;99462.69;;;23.86;56.64
27729;BME280;15126;42.186;24.340;2023-05-19T08:36:02;99458.03;;;24.16;56.74
27729;BME280;15126;42.186;24.340;2023-05-19T08:38:30;99455.13;;;24.39;55.95
27729;BME280;15126;42.186;24.340;2023-05-19T08:40:57;99454.28;;;24.66;52.86
27729;BME280;15126;42.186;24.340;2023-05-19T08:43:24;99461.25;;;24.81;52.40
27729;BME280;15126;42.186;24.340;2023-05-19T08:45:51;99456.69;;;24.51;48.94
27729;BME280;15126;42.186;24.340;2023-05-19T08:48:18;99457.41;;;24.62;53.73
27729;BME280;15126;42.186;24.340;2023-05-19T08:50:51;99460.19;;;24.84;52.23
27729;BME280;15126;42.186;24.340;2023-05-19T08:53:22;99462.28;;;24.78;50.42
27729;BME280;15126;42.186;24.340;2023-05-19T08:56:00;99455.50;;;24.87;50.43
27729;BME280;15126;42.186;24.340;2023-05-19T08:58:29;99457.00;;;25.05;55.73
27729;BME280;15126;42.186;24.340;2023-05-19T09:00:56;99448.63;;;25.18;49.26
27729;BME280;15126;42.186;24.340;2023-05-19T09:03:25;99458.06;;;24.96;48.28
27729;BME280;15126;42.186;24.340;2023-05-19T09:05:53;99446.69;;;24.91;48.86
27729;BME280;15126;42.186;24.340;2023-05-19T09:08:20;99453.19;;;24.91;49.40
27729;BME280;15126;42.186;24.340;2023-05-19T09:10:46;99447.69;;;24.99;47.51
27729;BME280;15126;42.186;24.340;2023-05-19T09:13:15;99446.41;;;25.00;48.51
27729;BME280;15126;42.186;24.340;2023-05-19T09:15:43;99456.59;;;25.25;50.67
27729;BME280;15126;42.186;24.340;2023-05-19T09:18:12;99455.16;;;25.07;50.42
27729;BME280;15126;42.186;24.340;2023-05-19T09:20:40;99453.00;;;25.24;50.62
27729;BME280;15126;42.186;24.340;2023-05-19T09:23:11;99457.13;;;25.29;50.02
27729;BME280;15126;42.186;24.340;2023-05-19T09:25:46;99452.63;;;25.39;50.21
27729;BME280;15126;42.186;24.340;2023-05-19T09:28:15;99459.47;;;25.66;48.89
27729;BME280;15126;42.186;24.340;2023-05-19T09:30:48;99453.19;;;25.73;47.94
27729;BME280;15126;42.186;24.340;2023-05-19T09:33:16;99453.78;;;25.95;43.20
27729;BME280;15126;42.186;24.340;2023-05-19T09:35:45;99442.53;;;26.03;43.60
27729;BME280;15126;42.186;24.340;2023-05-19T09:38:16;99440.66;;;26.11;44.33
27729;BME280;15126;42.186;24.340;2023-05-19T09:40:43;99452.59;;;26.15;50.53
27729;BME280;15126;42.186;24.340;2023-05-19T09:43:10;99448.22;;;26.09;48.10
27729;BME280;15126;42.186;24.340;2023-05-19T09:45:38;99453.47;;;26.29;50.27
27729;BME280;15126;42.186;24.340;2023-05-19T09:48:06;99448.97;;;26.39;45.09
27729;BME280;15126;42.186;24.340;2023-05-19T09:50:33;99445.38;;;26.57;47.17
27729;BME280;15126;42.186;24.340;2023-05-19T09:53:00;99445.03;;;26.66;46.77
27729;BME280;15126;42.186;24.340;2023-05-19T09:55:30;99454.16;;;26.40;39.96
27729;BME280;15126;42.186;24.340;2023-05-19T09:57:58;99447.81;;;26.23;41.33
27729;BME280;15126;42.186;24.340;2023-05-19T10:00:29;99445.75;;;26.24;42.70
27729;BME280;15126;42.186;24.340;2023-05-19T10:02:59;99447.75;;;26.29;48.71
27729;BME280;15126;42.186;24.340;2023-05-19T10:05:27;99445.34;;;26.09;42.72
27729;BME280;15126;42.186;24.340;2023-05-19T10:07:54;99446.69;;;26.02;42.82
27729;BME280;15126;42.186;24.340;2023-05-19T10:10:21;99445.91;;;26.01;48.81
27729;BME280;15126;42.186;24.340;2023-05-19T10:12:48;99446.69;;;26.02;45.50
27729;BME280;15126;42.186;24.340;2023-05-19T10:15:16;99445.63;;;26.05;48.55
27729;BME280;15126;42.186;24.340;2023-05-19T10:17:43;99430.97;;;25.90;43.79
27729;BME280;15126;42.186;24.340;2023-05-19T10:20:13;99437.28;;;26.07;43.92
27729;BME280;15126;42.186;24.340;2023-05-19T10:22:41;99440.63;;;26.17;44.32
27729;BME280;15126;42.186;24.340;2023-05-19T10:25:09;99439.09;;;26.10;42.74
27729;BME280;15126;42.186;24.340;2023-05-19T10:27:40;99434.78;;;26.28;47.17
27729;BME280;15126;42.186;24.340;2023-05-19T10:30:12;99433.22;;;26.27;44.19
27729;BME280;15126;42.186;24.340;2023-05-19T10:32:41;99435.97;;;26.38;48.42
27729;BME280;15126;42.186;24.340;2023-05-19T10:35:27;99424.31;;;26.36;42.22
27729;BME280;15126;42.186;24.340;2023-05-19T10:38:08;99443.72;;;26.43;44.81
27729;BME280;15126;42.186;24.340;2023-05-19T10:40:38;99429.03;;;26.03;47.15
27729;BME280;15126;42.186;24.340;2023-05-19T10:43:14;99425.09;;;25.77;49.10
27729;BME280;15126;42.186;24.340;2023-05-19T10:45:46;99440.34;;;25.85;48.13
27729;BME280;15126;42.186;24.340;2023-05-19T10:48:14;99438.63;;;26.06;44.13
27729;BME280;15126;42.186;24.340;2023-05-19T10:50:43;99445.81;;;26.13;46.36
27729;BME280;15126;42.186;24.340;2023-05-19T10:53:14;99444.31;;;26.36;49.22
27729;BME280;15126;42.186;24.340;2023-05-19T10:55:46;99441.63;;;26.43;47.69
27729;BME280;15126;42.186;24.340;2023-05-19T10:58:37;99432.88;;;26.60;47.77
27729;BME280;15126;42.186;24.340;2023-05-19T11:01:08;99431.31;;;26.59;46.55
27729;BME280;15126;42.186;24.340;2023-05-19T11:03:46;99427.72;;;26.53;46.48
27729;BME280;15126;42.186;24.340;2023-05-19T11:06:18;99444.66;;;26.51;48.57
27729;BME280;15126;42.186;24.340;2023-05-19T11:08:45;99449.56;;;26.32;45.12
27729;BME280;15126;42.186;24.340;2023-05-19T11:11:14;99435.03;;;26.30;49.00
27729;BME280;15126;42.186;24.340;2023-05-19T11:13:42;99432.56;;;26.15;47.63
27729;BME280;15126;42.186;24.340;2023-05-19T11:16:12;99430.00;;;26.12;48.40
27729;BME280;15126;42.186;24.340;2023-05-19T11:18:39;99432.00;;;25.92;47.43
27729;BME280;15126;42.186;24.340;2023-05-19T11:21:06;99427.94;;;25.77;48.28
27729;BME280;15126;42.186;24.340;2023-05-19T11:23:38;99422.97;;;25.53;47.56
27729;BME280;15126;42.186;24.340;2023-05-19T11:26:06;99421.22;;;25.39;48.19
27729;BME280;15126;42.186;24.340;2023-05-19T11:28:34;99414.25;;;25.34;50.22
27729;BME280;15126;42.186;24.340;2023-05-19T11:31:01;99384.44;;;25.30;48.48
27729;BME280;15126;42.186;24.340;2023-05-19T11:33:28;99416.72;;;25.55;49.32
27729;BME280;15126;42.186;24.340;2023-05-19T11:35:57;99416.94;;;25.62;47.54
27729;BME280;15126;42.186;24.340;2023-05-19T11:38:24;99406.97;;;25.69;49.27
27729;BME280;15126;42.186;24.340;2023-05-19T11:40:54;99412.78;;;25.87;46.99
27729;BME280;15126;42.186;24.340;2023-05-19T11:43:24;99413.13;;;26.08;45.05
27729;BME280;15126;42.186;24.340;2023-05-19T11:45:52;99411.59;;;26.31;44.48
27729;BME280;15126;42.186;24.340;2023-05-19T11:48:20;99413.69;;;26.55;49.54
27729;BME280;15126;42.186;24.340;2023-05-19T11:50:46;99403.81;;;26.50;45.54
27729;BME280;15126;42.186;24.340;2023-05-19T11:53:14;99405.13;;;26.74;43.51
27729;BME280;15126;42.186;24.340;2023-05-19T11:55:41;99410.81;;;26.98;46.74
27729;BME280;15126;42.186;24.340;2023-05-19T11:58:10;99410.16;;;27.05;45.20
27729;BME280;15126;42.186;24.340;2023-05-19T12:00:38;99407.84;;;27.03;44.31
27729;BME280;15126;42.186;24.340;2023-05-19T12:03:05;99403.34;;;27.08;45.34
27729;BME280;15126;42.186;24.340;2023-05-19T12:05:35;99392.59;;;27.14;39.63
27729;BME280;15126;42.186;24.340;2023-05-19T12:08:03;99412.63;;;27.33;41.52
27729;BME280;15126;42.186;24.340;2023-05-19T12:10:30;99413.31;;;27.39;44.39
27729;BME280;15126;42.186;24.340;2023-05-19T12:13:00;99412.66;;;27.14;42.51
27729;BME280;15126;42.186;24.340;2023-05-19T12:15:30;99406.06;;;27.00;43.46
27729;BME280;15126;42.186;24.340;2023-05-19T12:17:58;99402.06;;;26.90;44.24
27729;BME280;15126;42.186;24.340;2023-05-19T12:20:27;99406.78;;;26.88;42.72
27729;BME280;15126;42.186;24.340;2023-05-19T12:22:56;99400.66;;;26.78;43.02
27729;BME280;15126;42.186;24.340;2023-05-19T12:25:23;99393.41;;;26.72;41.32
27729;BME280;15126;42.186;24.340;2023-05-19T12:27:50;99392.47;;;26.63;42.12
27729;BME280;15126;42.186;24.340;2023-05-19T12:30:25;99393.78;;;26.44;44.02
27729;BME280;15126;42.186;24.340;2023-05-19T12:32:55;99390.09;;;26.25;44.07
27729;BME280;15126;42.186;24.340;2023-05-19T12:35:25;99389.75;;;26.04;43.43
27729;BME280;15126;42.186;24.340;2023-05-19T12:38:01;99392.66;;;25.98;45.55
27729;BME280;15126;42.186;24.340;2023-05-19T12:40:28;99367.19;;;25.76;45.40
27729;BME280;15126;42.186;24.340;2023-05-19T12:42:55;99392.09;;;25.81;45.87
27729;BME280;15126;42.186;24.340;2023-05-19T12:45:23;99393.31;;;25.86;46.50
27729;BME280;15126;42.186;24.340;2023-05-19T12:47:53;99386.50;;;25.94;45.90
27729;BME280;15126;42.186;24.340;2023-05-19T12:50:20;99378.63;;;25.76;44.97
27729;BME280;15126;42.186;24.340;2023-05-19T12:52:48;99382.19;;;25.82;42.93
27729;BME280;15126;42.186;24.340;2023-05-19T12:55:16;99384.81;;;26.04;45.07
27729;BME280;15126;42.186;24.340;2023-05-19T12:57:48;99379.88;;;26.05;42.53